ADDS METAR Data INFO
IDs: Format: Raw Decoded Include TAF

Data at: 1744 UTC 15 Dec 2017

METAR for:KTIX (Titusville/Space Coa, FL, US)
Text:KTIX 151650Z 22012KT 7SM SCT035 25/12 A3008
Temperature: 25.0°C ( 77°F)
Dewpoint: 12.0°C ( 54°F) [RH = 44%]
Pressure (altimeter):30.08 inches Hg (1018.7 mb)
Winds:from the SW (220 degrees) at 14 MPH (12 knots; 6.2 m/s)
Visibility: 7 sm ( 11 km)
Ceiling:at least 12,000 feet AGL
Clouds: scattered clouds at 3500 feet AGL